M I D A S
Marine Information and Data Acquisition System
Tripno 900 of the Zeeleeuw from 2005-05-13 11:42:02 to 2005-05-13 13:38:10
Back to CruiseResearch ActivitiesStationsMapUnderway DataData graphs

EquipmentUnitsComments
TimeDGPSUTC
LatitudeDGPSDM.mWGS84
LongitudeDGPSDM.mWGS84
SpeedMeteo Stationm/sRelative wind speed
DirectionMeteo StationdegRelative wind direction
TemperatureMeteo Stationdeg CelciusAir temperature
PressureMeteo StationPaAtmospheric pressure
HumidityMeteo Station%Relative humidity
Missing or incorrect values are displayed as -999
Metereological data collected by the RV Zeeleeuw from 2005-05-13 07:17:48 to 2005-05-13 13:50:20
                                                                                    Next 1000 lines
Time Latitude Longitude Speed Direction Temperature Pressure Humidity
2005-05-13 07:17:59 51°13.595 2°56.1 8.9 315 11.1 101800 61
2005-05-13 07:18:04 51°13.596 2°56.098 7.5 326 11.1 101800 61
2005-05-13 07:18:08 51°13.596 2°56.096 7.9 308 11.1 101800 61
2005-05-13 07:18:14 51°13.597 2°56.093 8.9 302 11.1 101800 61
2005-05-13 07:18:19 51°13.598 2°56.09 7.1 313 11.1 101790 61
2005-05-13 07:18:24 51°13.599 2°56.086 5.8 233 11.1 101790 61
2005-05-13 07:18:29 51°13.6 2°56.081 6.3 334 11 101790 62
2005-05-13 07:18:35 51°13.602 2°56.075 7.2 300 11 101790 62
2005-05-13 07:18:40 51°13.604 2°56.069 4.4 284 11 101790 62
2005-05-13 07:18:45 51°13.607 2°56.062 8.2 324 11 101790 62
2005-05-13 07:18:50 51°13.609 2°56.055 6.1 317 11 101810 62
2005-05-13 07:18:55 51°13.611 2°56.047 5.5 310 11 101810 62
2005-05-13 07:18:59 51°13.613 2°56.04 4.5 290 11 101800 62
2005-05-13 07:19:05 51°13.616 2°56.03 6.3 303 11 101800 62
2005-05-13 07:19:09 51°13.618 2°56.022 7.6 297 11 101810 63
2005-05-13 07:19:15 51°13.621 2°56.012 4.1 316 11 101810 63
2005-05-13 07:19:20 51°13.624 2°56.002 2.6 312 11 101800 63
2005-05-13 07:19:24 51°13.627 2°55.993 6.6 241 11 101800 63
2005-05-13 07:19:28 51°13.629 2°55.986 7.9 309 11 101810 63
2005-05-13 07:19:34 51°13.633 2°55.973 6.4 323 11 101810 63
2005-05-13 07:19:39 51°13.636 2°55.963 6.5 324 10.9 101810 63
2005-05-13 07:19:45 51°13.641 2°55.952 2.9 337 10.9 101810 63
2005-05-13 07:19:49 51°13.644 2°55.943 2.8 280 10.9 101810 63
2005-05-13 07:19:55 51°13.649 2°55.932 7.5 282 10.9 101810 63
2005-05-13 07:20:00 51°13.653 2°55.922 4 259 10.9 101800 63
2005-05-13 07:20:05 51°13.656 2°55.913 2.9 268 10.9 101800 63
2005-05-13 07:20:10 51°13.66 2°55.904 3.4 304 10.9 101800 63
2005-05-13 07:20:15 51°13.664 2°55.894 3 302 10.9 101800 63
2005-05-13 07:20:19 51°13.667 2°55.887 2.4 308 10.9 101800 63
2005-05-13 07:20:24 51°13.672 2°55.876 4.7 298 10.9 101800 63
2005-05-13 07:20:30 51°13.678 2°55.866 5.3 329 10.9 101800 63
2005-05-13 07:20:35 51°13.683 2°55.855 5.8 302 10.9 101800 63
2005-05-13 07:20:39 51°13.687 2°55.846 5.3 340 10.9 101800 63
2005-05-13 07:20:44 51°13.692 2°55.836 4.3 307 10.9 101800 63
2005-05-13 07:20:49 51°13.697 2°55.825 4.4 290 10.9 101800 63
2005-05-13 07:20:54 51°13.701 2°55.815 1.1 230 10.9 101800 63
2005-05-13 07:21:00 51°13.706 2°55.803 2.3 286 10.9 101800 63
2005-05-13 07:21:05 51°13.71 2°55.794 4.3 331 10.9 101800 63
2005-05-13 07:21:09 51°13.713 2°55.785 4.9 320 10.9 101800 63
2005-05-13 07:21:15 51°13.717 2°55.775 5.6 338 10.9 101800 63
2005-05-13 07:21:19 51°13.72 2°55.767 4.8 29 10.9 101800 63
2005-05-13 07:21:24 51°13.723 2°55.759 3.7 283 10.9 101800 63
2005-05-13 07:21:28 51°13.725 2°55.752 3.2 305 10.9 101800 63
2005-05-13 07:21:34 51°13.728 2°55.742 5.9 258 10.9 101800 63
2005-05-13 07:21:40 51°13.73 2°55.735 8.5 304 10.9 101800 63
2005-05-13 07:21:44 51°13.731 2°55.732 9.1 328 10.9 101800 63
2005-05-13 07:21:49 51°13.732 2°55.731 8.7 342 10.9 101800 63
2005-05-13 07:21:54 51°13.733 2°55.731 7.5 349 10.9 101800 63
2005-05-13 07:21:59 51°13.733 2°55.733 7.2 12 10.9 101810 63
2005-05-13 07:22:04 51°13.734 2°55.736 5.8 20 10.9 101810 63
2005-05-13 07:22:08 51°13.735 2°55.738 6.9 13 10.9 101800 62
2005-05-13 07:22:14 51°13.736 2°55.742 4.6 23 10.9 101800 62
2005-05-13 07:22:19 51°13.737 2°55.743 4.9 18 10.9 101810 62
2005-05-13 07:22:24 51°13.738 2°55.745 2.5 65 10.9 101810 62
2005-05-13 07:22:29 51°13.739 2°55.745 4.4 42 10.8 101800 62
2005-05-13 07:22:34 51°13.739 2°55.745 3.6 72 10.8 101800 62
2005-05-13 07:22:39 51°13.739 2°55.744 4.1 357 10.8 101800 62
2005-05-13 07:22:43 51°13.739 2°55.743 5.5 42 10.8 101800 62
2005-05-13 07:22:48 51°13.738 2°55.741 4.6 68 10.8 101800 63
2005-05-13 07:22:54 51°13.737 2°55.738 1.7 19 10.8 101800 63
2005-05-13 07:22:59 51°13.737 2°55.736 2.3 331 10.8 101800 63
2005-05-13 07:23:04 51°13.735 2°55.732 3.1 93 10.8 101800 63
2005-05-13 07:23:09 51°13.734 2°55.729 3.7 72 10.8 101800 63
2005-05-13 07:23:15 51°13.732 2°55.725 4.8 38 10.8 101800 63
2005-05-13 07:23:20 51°13.731 2°55.721 5.6 42 10.8 101800 63
2005-05-13 07:23:24 51°13.729 2°55.718 5.9 29 10.8 101800 63
2005-05-13 07:23:30 51°13.727 2°55.714 4.4 35 10.8 101800 63
2005-05-13 07:23:35 51°13.726 2°55.711 4.3 25 10.8 101800 63
2005-05-13 07:23:40 51°13.725 2°55.709 5.6 61 10.8 101810 63
2005-05-13 07:23:44 51°13.724 2°55.708 3.9 70 10.8 101810 63
2005-05-13 07:23:49 51°13.725 2°55.707 6.1 55 10.7 101810 63
2005-05-13 07:23:54 51°13.725 2°55.706 4.4 81 10.7 101810 63
2005-05-13 07:23:59 51°13.727 2°55.706 4.2 74 10.7 101800 63
2005-05-13 07:24:04 51°13.729 2°55.705 5.3 100 10.7 101800 63
2005-05-13 07:24:08 51°13.731 2°55.704 4.5 86 10.7 101800 64
2005-05-13 07:24:14 51°13.734 2°55.702 3.4 105 10.7 101800 64
2005-05-13 07:24:18 51°13.736 2°55.701 4.2 113 10.7 101800 63
2005-05-13 07:24:24 51°13.74 2°55.698 6.2 93 10.7 101800 63
2005-05-13 07:24:28 51°13.742 2°55.696 6.9 94 10.7 101800 64
2005-05-13 07:24:34 51°13.747 2°55.692 8.3 86 10.7 101800 64
2005-05-13 07:24:39 51°13.751 2°55.689 8.4 119 10.7 101800 64
2005-05-13 07:24:44 51°13.756 2°55.685 5.8 121 10.7 101800 64
2005-05-13 07:24:49 51°13.76 2°55.681 5.2 110 10.7 101810 64
2005-05-13 07:24:54 51°13.766 2°55.677 6.2 93 10.7 101810 64
2005-05-13 07:24:59 51°13.771 2°55.673 5.9 95 10.7 101810 64
2005-05-13 07:25:04 51°13.777 2°55.669 7.6 110 10.7 101810 64
2005-05-13 07:25:08 51°13.783 2°55.665 9.1 113 10.7 101800 64
2005-05-13 07:25:14 51°13.791 2°55.66 8.8 113 10.7 101800 64
2005-05-13 07:25:19 51°13.797 2°55.656 8.3 107 10.7 101810 64
2005-05-13 07:25:24 51°13.805 2°55.651 5.8 82 10.7 101810 64
2005-05-13 07:25:29 51°13.812 2°55.647 6.2 97 10.6 101810 64
2005-05-13 07:25:34 51°13.82 2°55.642 2.1 43 10.6 101810 64
2005-05-13 07:25:39 51°13.827 2°55.638 3.6 50 10.6 101810 64
2005-05-13 07:25:44 51°13.834 2°55.633 4.1 140 10.6 101810 64
2005-05-13 07:25:48 51°13.841 2°55.629 3.2 80 10.6 101810 64
2005-05-13 07:25:52 51°13.848 2°55.625 4.1 35 10.6 101810 64
2005-05-13 07:25:59 51°13.858 2°55.62 4 42 10.6 101810 64
2005-05-13 07:26:04 51°13.867 2°55.614 5.3 42 10.6 101810 64
2005-05-13 07:26:09 51°13.875 2°55.609 4.9 100 10.6 101810 64
2005-05-13 07:26:14 51°13.884 2°55.603 4.2 35 10.6 101810 64
2005-05-13 07:26:19 51°13.893 2°55.598 3.1 66 10.6 101810 64
2005-05-13 07:26:24 51°13.903 2°55.591 6.8 82 10.6 101810 64
2005-05-13 07:26:29 51°13.912 2°55.585 6.2 71 10.6 101800 64
2005-05-13 07:26:33 51°13.919 2°55.581 7.7 87 10.6 101800 64
2005-05-13 07:26:39 51°13.93 2°55.573 8.5 99 10.6 101800 65
2005-05-13 07:26:44 51°13.941 2°55.566 8.6 97 10.6 101800 65
2005-05-13 07:26:49 51°13.95 2°55.559 5.8 75 10.6 101800 65
2005-05-13 07:26:53 51°13.957 2°55.554 5.7 99 10.6 101800 65
2005-05-13 07:26:59 51°13.969 2°55.546 4.9 77 10.6 101800 65
2005-05-13 07:27:04 51°13.98 2°55.539 6.2 83 10.6 101800 65
2005-05-13 07:27:08 51°13.989 2°55.532 8.2 101 10.6 101790 65
2005-05-13 07:27:14 51°14.002 2°55.523 7.4 107 10.6 101790 65
2005-05-13 07:27:19 51°14.012 2°55.517 6 107 10.6 101790 65
2005-05-13 07:27:24 51°14.024 2°55.509 7.1 97 10.6 101790 65
2005-05-13 07:27:29 51°14.035 2°55.501 7 80 10.6 101800 66
2005-05-13 07:27:34 51°14.045 2°55.494 3.8 79 10.6 101800 66
2005-05-13 07:27:39 51°14.055 2°55.488 4.5 69 10.6 101790 65
2005-05-13 07:27:44 51°14.067 2°55.48 5.5 43 10.6 101790 65
2005-05-13 07:27:49 51°14.077 2°55.473 5.6 50 10.6 101800 66
2005-05-13 07:27:54 51°14.088 2°55.465 6.9 58 10.6 101800 66
2005-05-13 07:27:59 51°14.098 2°55.458 6.6 59 10.6 101800 66
2005-05-13 07:28:04 51°14.109 2°55.45 7.4 67 10.6 101800 66
2005-05-13 07:28:09 51°14.119 2°55.443 7.1 69 10.7 101800 67
2005-05-13 07:28:14 51°14.131 2°55.434 7 76 10.7 101800 67
2005-05-13 07:28:19 51°14.14 2°55.427 7 75 10.7 101800 66
2005-05-13 07:28:24 51°14.151 2°55.418 6.7 65 10.7 101800 66
2005-05-13 07:28:28 51°14.159 2°55.411 7.4 71 10.7 101790 65
2005-05-13 07:28:33 51°14.168 2°55.403 6.1 68 10.7 101790 65
2005-05-13 07:28:39 51°14.18 2°55.391 5.3 84 10.6 101790 65
2005-05-13 07:28:44 51°14.19 2°55.38 7 76 10.6 101790 65
2005-05-13 07:28:48 51°14.197 2°55.371 8.1 87 10.6 101800 65
2005-05-13 07:28:54 51°14.208 2°55.357 8.8 81 10.6 101800 65
2005-05-13 07:28:59 51°14.217 2°55.345 7.1 92 10.6 101800 66
2005-05-13 07:29:04 51°14.227 2°55.331 9.9 85 10.6 101800 66
2005-05-13 07:29:09 51°14.235 2°55.319 10.9 94 10.7 101800 66
2005-05-13 07:29:14 51°14.246 2°55.302 8.2 88 10.7 101800 66
2005-05-13 07:29:19 51°14.254 2°55.288 8.2 93 10.7 101800 65
2005-05-13 07:29:24 51°14.264 2°55.27 9.3 96 10.7 101800 65
2005-05-13 07:29:28 51°14.271 2°55.256 7.5 65 10.7 101800 66
2005-05-13 07:29:34 51°14.282 2°55.235 5.7 96 10.7 101800 66
2005-05-13 07:29:39 51°14.29 2°55.218 5.9 106 10.6 101800 66
2005-05-13 07:29:43 51°14.298 2°55.202 6.4 93 10.6 101800 66
2005-05-13 07:29:49 51°14.307 2°55.18 8.8 109 10.6 101790 66
2005-05-13 07:29:54 51°14.316 2°55.161 5.4 89 10.6 101790 66
2005-05-13 07:29:59 51°14.324 2°55.141 6.7 86 10.6 101800 66
2005-05-13 07:30:04 51°14.333 2°55.118 7.7 81 10.6 101800 66
2005-05-13 07:30:08 51°14.34 2°55.101 9.3 91 10.6 101800 66
2005-05-13 07:30:14 51°14.35 2°55.074 6.3 79 10.6 101800 66
2005-05-13 07:30:19 51°14.357 2°55.052 4.8 45 10.6 101800 67
2005-05-13 07:30:24 51°14.365 2°55.027 10.7 100 10.6 101800 67
2005-05-13 07:30:28 51°14.372 2°55.008 9.8 95 10.6 101800 67
2005-05-13 07:30:34 51°14.38 2°54.98 9.9 105 10.6 101800 67
2005-05-13 07:30:39 51°14.387 2°54.954 10 108 10.6 101800 67
2005-05-13 07:30:44 51°14.393 2°54.925 9.3 100 10.6 101800 67
2005-05-13 07:30:48 51°14.398 2°54.903 8.6 106 10.6 101800 67
2005-05-13 07:30:54 51°14.403 2°54.872 8.1 105 10.6 101800 67
2005-05-13 07:30:58 51°14.408 2°54.847 7.5 108 10.5 101780 66
2005-05-13 07:31:04 51°14.415 2°54.813 8.2 112 10.5 101780 66
2005-05-13 07:31:08 51°14.419 2°54.79 8.7 108 10.5 101790 67
2005-05-13 07:31:14 51°14.425 2°54.759 8.1 107 10.5 101790 67
2005-05-13 07:31:19 51°14.431 2°54.731 9 98 10.5 101800 67
2005-05-13 07:31:24 51°14.438 2°54.699 7.9 107 10.5 101800 67
2005-05-13 07:31:29 51°14.444 2°54.673 7.9 109 10.5 101800 67
2005-05-13 07:31:34 51°14.451 2°54.641 8.1 112 10.5 101800 67
2005-05-13 07:31:39 51°14.457 2°54.616 9.3 109 10.5 101790 66
2005-05-13 07:31:44 51°14.464 2°54.587 8.1 111 10.5 101790 66
2005-05-13 07:31:48 51°14.471 2°54.562 7.2 103 10.5 101790 66
2005-05-13 07:31:54 51°14.48 2°54.528 9.6 121 10.5 101790 66
2005-05-13 07:31:59 51°14.486 2°54.503 10 118 10.5 101800 67
2005-05-13 07:32:03 51°14.493 2°54.477 8.6 118 10.5 101800 67
2005-05-13 07:32:09 51°14.501 2°54.444 8.4 121 10.5 101800 66
2005-05-13 07:32:14 51°14.509 2°54.413 7.4 113 10.5 101800 66
2005-05-13 07:32:19 51°14.516 2°54.387 6.8 119 10.4 101800 66
2005-05-13 07:32:24 51°14.523 2°54.356 5.9 118 10.4 101800 66
2005-05-13 07:32:28 51°14.529 2°54.333 6.7 112 10.5 101790 67
2005-05-13 07:32:34 51°14.538 2°54.298 6.5 110 10.5 101790 67
2005-05-13 07:32:39 51°14.545 2°54.269 6.5 114 10.4 101800 67
2005-05-13 07:32:44 51°14.552 2°54.239 7.2 119 10.4 101800 67
2005-05-13 07:32:49 51°14.559 2°54.214 6.2 113 10.4 101810 67
2005-05-13 07:32:54 51°14.567 2°54.183 7.3 110 10.4 101810 67
2005-05-13 07:32:59 51°14.573 2°54.157 7.1 110 10.4 101800 67
2005-05-13 07:33:03 51°14.579 2°54.134 7.3 98 10.4 101800 67
2005-05-13 07:33:08 51°14.588 2°54.102 7.2 102 10.5 101790 68
2005-05-13 07:33:14 51°14.596 2°54.067 8.2 99 10.5 101790 68
2005-05-13 07:33:19 51°14.602 2°54.041 9.5 108 10.5 101810 68
2005-05-13 07:33:24 51°14.611 2°54.01 9.2 101 10.5 101810 68
2005-05-13 07:33:29 51°14.618 2°53.981 8.9 109 10.5 101800 69
2005-05-13 07:33:33 51°14.624 2°53.958 10 105 10.5 101800 69
2005-05-13 07:33:39 51°14.633 2°53.927 7.9 103 10.5 101800 69
2005-05-13 07:33:44 51°14.64 2°53.895 7.8 91 10.5 101800 69
2005-05-13 07:33:48 51°14.646 2°53.872 8.3 97 10.5 101790 68
2005-05-13 07:33:54 51°14.654 2°53.84 8.3 95 10.5 101790 68
2005-05-13 07:33:59 51°14.661 2°53.811 8.5 100 10.5 101800 67
2005-05-13 07:34:04 51°14.669 2°53.783 8.6 86 10.5 101800 67
2005-05-13 07:34:09 51°14.676 2°53.754 9.2 93 10.5 101810 69
2005-05-13 07:34:14 51°14.684 2°53.723 9.5 106 10.5 101810 69
2005-05-13 07:34:19 51°14.691 2°53.699 10 103 10.5 101810 69
2005-05-13 07:34:24 51°14.699 2°53.667 10 101 10.5 101810 69
2005-05-13 07:34:29 51°14.706 2°53.641 8.7 104 10.6 101800 71
2005-05-13 07:34:34 51°14.713 2°53.609 7.9 106 10.6 101800 71
2005-05-13 07:34:39 51°14.719 2°53.581 7.9 99 10.6 101800 72
2005-05-13 07:34:43 51°14.724 2°53.557 8.5 106 10.6 101800 72
2005-05-13 07:34:48 51°14.73 2°53.528 10.5 104 10.5 101790 72
2005-05-13 07:34:54 51°14.736 2°53.492 9 109 10.5 101790 72
2005-05-13 07:34:59 51°14.742 2°53.461 8.6 114 10.5 101800 71
2005-05-13 07:35:04 51°14.747 2°53.431 9.7 105 10.5 101800 71
2005-05-13 07:35:08 51°14.75 2°53.407 8 97 10.5 101790 72
2005-05-13 07:35:14 51°14.755 2°53.374 7.9 112 10.5 101790 72
2005-05-13 07:35:19 51°14.76 2°53.34 8.1 116 10.5 101790 72
2005-05-13 07:35:24 51°14.765 2°53.31 7.2 111 10.5 101790 72
2005-05-13 07:35:29 51°14.768 2°53.282 6.2 111 10.4 101800 72
2005-05-13 07:35:34 51°14.772 2°53.249 6.4 115 10.4 101800 72
2005-05-13 07:35:39 51°14.776 2°53.22 6.8 117 10.4 101800 73
2005-05-13 07:35:44 51°14.78 2°53.187 8.1 110 10.4 101800 73
2005-05-13 07:35:48 51°14.783 2°53.162 8.8 112 10.4 101800 73
2005-05-13 07:35:54 51°14.787 2°53.124 7.2 99 10.4 101800 73
2005-05-13 07:35:59 51°14.79 2°53.096 8.3 106 10.4 101810 73
2005-05-13 07:36:04 51°14.792 2°53.065 8.9 115 10.4 101810 73
2005-05-13 07:36:09 51°14.795 2°53.034 7.3 122 10.3 101800 73
2005-05-13 07:36:14 51°14.797 2°52.999 7.7 118 10.3 101800 73
2005-05-13 07:36:19 51°14.798 2°52.97 6.3 121 10.3 101800 73
2005-05-13 07:36:24 51°14.8 2°52.939 6.5 119 10.3 101800 73
2005-05-13 07:36:28 51°14.801 2°52.91 6.2 115 10.3 101810 73
2005-05-13 07:36:34 51°14.802 2°52.872 6.7 105 10.3 101810 73
2005-05-13 07:36:39 51°14.803 2°52.843 6.7 110 10.3 101810 73
2005-05-13 07:36:44 51°14.804 2°52.811 7.4 119 10.3 101810 73
2005-05-13 07:36:48 51°14.804 2°52.783 5.8 115 10.3 101810 74
2005-05-13 07:36:54 51°14.804 2°52.745 6.9 118 10.3 101810 74
2005-05-13 07:36:59 51°14.805 2°52.713 8 117 10.2 101800 74
2005-05-13 07:37:04 51°14.805 2°52.684 9.7 123 10.2 101800 74
2005-05-13 07:37:09 51°14.806 2°52.652 8.9 130 10.2 101810 75
2005-05-13 07:37:13 51°14.806 2°52.627 9 118 10.2 101810 75
2005-05-13 07:37:19 51°14.807 2°52.589 10.2 119 10.2 101810 75
2005-05-13 07:37:24 51°14.808 2°52.554 9.1 122 10.2 101810 75
2005-05-13 07:37:29 51°14.809 2°52.525 8.6 124 10.2 101800 74
2005-05-13 07:37:34 51°14.81 2°52.49 7 124 10.2 101800 74
2005-05-13 07:37:39 51°14.811 2°52.462 8.1 127 10.1 101810 73
2005-05-13 07:37:44 51°14.811 2°52.427 6.7 113 10.1 101810 73
2005-05-13 07:37:49 51°14.812 2°52.398 6.8 123 10.1 101800 73
2005-05-13 07:37:54 51°14.813 2°52.366 7.6 127 10.1 101800 73
2005-05-13 07:37:59 51°14.814 2°52.335 7.5 124 10.1 101800 74
2005-05-13 07:38:04 51°14.814 2°52.299 8.6 128 10.1 101800 74
2005-05-13 07:38:09 51°14.814 2°52.271 6.4 129 10.1 101810 74
2005-05-13 07:38:14 51°14.815 2°52.235 7.7 126 10.1 101810 74
2005-05-13 07:38:19 51°14.816 2°52.206 7.5 125 10.1 101810 74
2005-05-13 07:38:24 51°14.817 2°52.174 6.9 127 10.1 101810 74
2005-05-13 07:38:29 51°14.818 2°52.142 5.6 113 10 101810 74
2005-05-13 07:38:34 51°14.819 2°52.107 8.7 113 10 101810 74
2005-05-13 07:38:39 51°14.821 2°52.078 9.6 117 10 101800 74
2005-05-13 07:38:44 51°14.822 2°52.043 7.4 113 10 101800 74
2005-05-13 07:38:48 51°14.823 2°52.017 7.3 116 10 101800 74
2005-05-13 07:38:54 51°14.824 2°51.982 8.9 121 10 101800 74
2005-05-13 07:38:59 51°14.825 2°51.95 8.6 119 10 101810 75
2005-05-13 07:39:04 51°14.826 2°51.918 7.4 128 10 101810 75
2005-05-13 07:39:08 51°14.826 2°51.892 6.7 133 10.1 101810 75
2005-05-13 07:39:14 51°14.827 2°51.853 7.4 121 10.1 101810 75
2005-05-13 07:39:19 51°14.828 2°51.822 6.7 117 10 101800 75
2005-05-13 07:39:23 51°14.827 2°51.792 7 132 10 101800 75
2005-05-13 07:39:29 51°14.828 2°51.757 6.7 124 10 101800 75
2005-05-13 07:39:34 51°14.828 2°51.725 6.4 121 10 101800 75
2005-05-13 07:39:39 51°14.83 2°51.693 8.2 122 10 101810 75
2005-05-13 07:39:44 51°14.83 2°51.657 8.6 121 10 101810 75
2005-05-13 07:39:49 51°14.83 2°51.624 6.4 127 10 101820 75
2005-05-13 07:39:54 51°14.833 2°51.592 8.5 122 10 101820 75
2005-05-13 07:39:59 51°14.832 2°51.563 5.8 127 10 101800 75
2005-05-13 07:40:04 51°14.835 2°51.527 6.9 119 10 101800 75
2005-05-13 07:40:08 51°14.835 2°51.501 7 124 10 101800 75
2005-05-13 07:40:14 51°14.837 2°51.462 8.5 123 10 101800 75
2005-05-13 07:40:19 51°14.838 2°51.433 6.7 131 10 101810 76
2005-05-13 07:40:24 51°14.839 2°51.401 7.7 128 10 101810 76
2005-05-13 07:40:29 51°14.841 2°51.367 8.3 122 10 101810 75
2005-05-13 07:40:34 51°14.842 2°51.332 7.2 111 10 101810 75
2005-05-13 07:40:38 51°14.844 2°51.306 6.5 116 10 101810 75
2005-05-13 07:40:44 51°14.844 2°51.271 6.4 129 10 101810 75
2005-05-13 07:40:49 51°14.844 2°51.238 6.2 126 10 101810 74
2005-05-13 07:40:53 51°14.842 2°51.209 6.6 126 10 101810 74
2005-05-13 07:40:59 51°14.84 2°51.173 5.8 128 10 101810 75
2005-05-13 07:41:04 51°14.835 2°51.139 6.4 148 10 101810 75
2005-05-13 07:41:09 51°14.831 2°51.11 5.7 148 10 101810 76
2005-05-13 07:41:14 51°14.825 2°51.076 4.3 147 10 101810 76
2005-05-13 07:41:20 51°14.817 2°51.045 3.6 155 10 101810 75
2005-05-13 07:41:23 51°14.812 2°51.024 3.3 181 10 101810 75
2005-05-13 07:41:29 51°14.804 2°50.995 2.8 163 10 101820 75
2005-05-13 07:41:34 51°14.796 2°50.966 5.8 155 10 101820 75
2005-05-13 07:41:39 51°14.79 2°50.943 5.3 160 10 101810 75
2005-05-13 07:41:44 51°14.786 2°50.917 7.3 146 10 101810 75
2005-05-13 07:41:48 51°14.785 2°50.899 7.2 44 10 101820 76
2005-05-13 07:41:53 51°14.785 2°50.878 8.6 138 10 101820 76
2005-05-13 07:41:59 51°14.784 2°50.857 9.7 139 10 101810 76
2005-05-13 07:42:03 51°14.784 2°50.843 9.8 135 10 101810 76
2005-05-13 07:42:09 51°14.785 2°50.823 10.1 128 10 101810 76
2005-05-13 07:42:12 51°14.785 2°50.812 11.4 144 10 101810 76
2005-05-13 07:42:19 51°14.785 2°50.793 10.9 141 10 101800 75
2005-05-13 07:42:24 51°14.785 2°50.778 10.4 143 10 101800 75
2005-05-13 07:42:29 51°14.784 2°50.767 10.1 145 10 101790 75
2005-05-13 07:42:34 51°14.783 2°50.754 9.9 146 10 101790 75
2005-05-13 07:42:39 51°14.782 2°50.744 11.1 151 9.9 101790 75
2005-05-13 07:42:44 51°14.78 2°50.733 10 159 9.9 101790 75
2005-05-13 07:42:48 51°14.779 2°50.725 10.1 167 9.9 101800 74
2005-05-13 07:42:55 51°14.776 2°50.713 10 171 9.9 101800 74
2005-05-13 07:42:59 51°14.775 2°50.706 10.6 174 9.9 101800 75
2005-05-13 07:43:04 51°14.772 2°50.696 4.4 172 9.9 101800 75
2005-05-13 07:43:09 51°14.77 2°50.688 9.1 177 9.9 101800 75
2005-05-13 07:43:14 51°14.768 2°50.679 10 170 9.9 101800 75
2005-05-13 07:43:19 51°14.766 2°50.671 10.3 174 9.9 101800 76
2005-05-13 07:43:24 51°14.763 2°50.663 11.2 168 9.9 101800 76
2005-05-13 07:43:28 51°14.761 2°50.655 10.8 170 9.9 101820 76
2005-05-13 07:43:34 51°14.758 2°50.645 9.2 168 9.9 101820 76
2005-05-13 07:43:39 51°14.757 2°50.637 10.6 165 9.9 101810 75
2005-05-13 07:43:44 51°14.755 2°50.629 10.1 166 9.9 101810 75
2005-05-13 07:43:48 51°14.752 2°50.622 9.9 161 9.8 101810 75
2005-05-13 07:43:54 51°14.75 2°50.611 8.4 167 9.8 101810 75
2005-05-13 07:43:59 51°14.748 2°50.603 8.6 158 9.8 101800 75
2005-05-13 07:44:04 51°14.746 2°50.596 12 164 9.8 101800 75
2005-05-13 07:44:09 51°14.745 2°50.588 11 160 9.8 101810 75
2005-05-13 07:44:14 51°14.743 2°50.58 11 150 9.8 101810 75
2005-05-13 07:44:19 51°14.741 2°50.572 11 157 9.9 101810 76
2005-05-13 07:44:24 51°14.739 2°50.563 10.3 153 9.9 101810 76
2005-05-13 07:44:29 51°14.738 2°50.556 9.9 155 9.8 101800 76
2005-05-13 07:44:34 51°14.737 2°50.548 10.8 153 9.8 101800 76
2005-05-13 07:44:39 51°14.735 2°50.541 9.4 157 9.8 101800 76
2005-05-13 07:44:44 51°14.734 2°50.532 9.7 157 9.8 101800 76
2005-05-13 07:44:49 51°14.733 2°50.525 11.6 149 9.8 101810 76
2005-05-13 07:44:54 51°14.731 2°50.516 10.5 152 9.8 101810 76
2005-05-13 07:44:59 51°14.73 2°50.508 11.9 157 9.9 101820 77
2005-05-13 07:45:04 51°14.728 2°50.499 10.6 165 9.9 101820 77
2005-05-13 07:45:08 51°14.726 2°50.492 9.9 169 9.8 101820 77
2005-05-13 07:45:14 51°14.723 2°50.482 10.8 172 9.8 101820 77
2005-05-13 07:45:19 51°14.721 2°50.475 8.8 170 9.8 101820 77
2005-05-13 07:45:24 51°14.719 2°50.465 8.4 186 9.8 101820 77
2005-05-13 07:45:29 51°14.716 2°50.457 6.9 183 9.8 101810 77
2005-05-13 07:45:34 51°14.714 2°50.448 8 178 9.8 101810 77
2005-05-13 07:45:39 51°14.712 2°50.441 9.1 174 9.8 101820 77
2005-05-13 07:45:44 51°14.709 2°50.433 8.4 183 9.8 101820 77
2005-05-13 07:45:49 51°14.706 2°50.424 6.1 185 9.8 101800 77
2005-05-13 07:45:54 51°14.703 2°50.415 7 179 9.8 101800 77
2005-05-13 07:45:59 51°14.7 2°50.407 6 179 9.8 101810 76
2005-05-13 07:46:03 51°14.698 2°50.4 5.8 189 9.8 101810 76
2005-05-13 07:46:08 51°14.696 2°50.391 6.9 181 9.9 101810 76
2005-05-13 07:46:14 51°14.693 2°50.381 6.9 188 9.9 101810 76
2005-05-13 07:46:19 51°14.69 2°50.373 5.7 184 9.8 101810 77
2005-05-13 07:46:24 51°14.688 2°50.363 8.1 183 9.8 101810 77
2005-05-13 07:46:29 51°14.685 2°50.355 7.9 176 9.9 101810 77
2005-05-13 07:46:33 51°14.683 2°50.347 7.5 174 9.9 101810 77
2005-05-13 07:46:40 51°14.68 2°50.336 7.3 184 9.9 101810 77
2005-05-13 07:46:43 51°14.678 2°50.33 11.1 180 9.9 101810 77
2005-05-13 07:46:48 51°14.676 2°50.321 8.1 174 9.9 101810 77
2005-05-13 07:46:54 51°14.672 2°50.309 7.7 179 9.9 101810 77
2005-05-13 07:46:59 51°14.67 2°50.3 8.3 175 9.9 101810 77
2005-05-13 07:47:04 51°14.666 2°50.289 9.6 171 9.9 101810 77
2005-05-13 07:47:08 51°14.664 2°50.281 10.5 166 9.9 101810 76
2005-05-13 07:47:14 51°14.661 2°50.27 8.3 181 9.9 101810 76
2005-05-13 07:47:19 51°14.659 2°50.261 9.4 175 9.9 101820 76
2005-05-13 07:47:24 51°14.656 2°50.251 11 174 9.9 101820 76
2005-05-13 07:47:28 51°14.654 2°50.244 9.8 175 9.9 101810 76
2005-05-13 07:47:34 51°14.652 2°50.234 9.5 167 9.9 101810 76
2005-05-13 07:47:39 51°14.649 2°50.223 9 166 9.9 101820 76
2005-05-13 07:47:44 51°14.648 2°50.214 12.4 174 9.9 101820 76
2005-05-13 07:47:48 51°14.645 2°50.207 10.3 182 9.9 101810 77
2005-05-13 07:47:54 51°14.643 2°50.195 9.1 178 9.9 101810 77
2005-05-13 07:47:59 51°14.641 2°50.187 10.5 174 9.9 101800 77
2005-05-13 07:48:04 51°14.639 2°50.176 8.6 167 9.9 101800 77
2005-05-13 07:48:08 51°14.637 2°50.169 9.2 165 9.8 101800 77
2005-05-13 07:48:14 51°14.635 2°50.158 8.9 159 9.8 101800 77
2005-05-13 07:48:19 51°14.633 2°50.15 9.6 162 9.8 101810 76
2005-05-13 07:48:24 51°14.631 2°50.141 12 162 9.8 101810 76
2005-05-13 07:48:28 51°14.629 2°50.132 11.4 169 9.8 101810 77
2005-05-13 07:48:34 51°14.627 2°50.122 10.4 162 9.8 101810 77
2005-05-13 07:48:39 51°14.625 2°50.114 10.3 170 9.9 101800 78
2005-05-13 07:48:43 51°14.623 2°50.106 10.4 170 9.9 101800 78
2005-05-13 07:48:49 51°14.621 2°50.097 9.5 178 9.9 101800 78
2005-05-13 07:48:54 51°14.619 2°50.088 9.6 178 9.9 101800 78
2005-05-13 07:48:59 51°14.617 2°50.081 9.3 175 9.9 101810 78
2005-05-13 07:49:04 51°14.615 2°50.072 9.1 174 9.9 101810 78
2005-05-13 07:49:08 51°14.614 2°50.065 11.3 170 9.8 101810 78
2005-05-13 07:49:14 51°14.611 2°50.057 11.4 170 9.8 101810 78
2005-05-13 07:49:19 51°14.608 2°50.051 9 180 9.8 101810 78
2005-05-13 07:49:23 51°14.607 2°50.044 7.2 196 9.8 101810 78
2005-05-13 07:49:29 51°14.604 2°50.035 5.8 181 9.9 101810 78
2005-05-13 07:49:32 51°14.602 2°50.03 6.8 188 9.9 101810 78
2005-05-13 07:49:39 51°14.599 2°50.02 5.8 180 9.8 101810 78
2005-05-13 07:49:44 51°14.596 2°50.012 5.8 192 9.8 101810 78
2005-05-13 07:49:48 51°14.594 2°50.006 9.6 194 9.8 101800 77
2005-05-13 07:49:54 51°14.591 2°49.998 5.5 193 9.8 101800 77
2005-05-13 07:49:59 51°14.588 2°49.992 7.8 188 9.8 101810 77
2005-05-13 07:50:04 51°14.585 2°49.985 10.3 203 9.8 101810 77
2005-05-13 07:50:09 51°14.582 2°49.978 10 204 9.8 101800 77
2005-05-13 07:50:14 51°14.579 2°49.972 12.4 209 9.8 101800 77
2005-05-13 07:50:19 51°14.577 2°49.966 11.3 206 9.8 101800 77
2005-05-13 07:50:24 51°14.573 2°49.96 12.9 208 9.8 101800 77
2005-05-13 07:50:28 51°14.57 2°49.956 12.9 214 9.8 101800 77
2005-05-13 07:50:34 51°14.566 2°49.949 13 217 9.8 101800 77
2005-05-13 07:50:39 51°14.564 2°49.943 12.6 216 9.8 101800 76
2005-05-13 07:50:43 51°14.561 2°49.939 12.8 221 9.8 101800 76
2005-05-13 07:50:49 51°14.557 2°49.932 14.5 224 9.8 101790 75
2005-05-13 07:50:54 51°14.554 2°49.927 12.6 225 9.8 101790 75
2005-05-13 07:50:59 51°14.55 2°49.921 11 228 9.8 101790 75
2005-05-13 07:51:04 51°14.547 2°49.916 10 229 9.8 101790 75
2005-05-13 07:51:09 51°14.544 2°49.912 9.9 235 9.8 101790 75
2005-05-13 07:51:14 51°14.54 2°49.907 10.3 240 9.8 101790 75
2005-05-13 07:51:19 51°14.537 2°49.902 9.4 237 9.8 101780 76
2005-05-13 07:51:24 51°14.533 2°49.897 11.2 238 9.8 101780 76
2005-05-13 07:51:29 51°14.53 2°49.893 11 239 9.8 101780 76
2005-05-13 07:51:34 51°14.527 2°49.889 13.5 241 9.8 101780 76
2005-05-13 07:51:39 51°14.523 2°49.884 13.7 239 9.8 101790 77
2005-05-13 07:51:44 51°14.52 2°49.879 11.4 240 9.8 101790 77
2005-05-13 07:51:49 51°14.516 2°49.876 12.1 245 9.8 101780 77
2005-05-13 07:51:54 51°14.513 2°49.872 8.5 255 9.8 101780 77
2005-05-13 07:51:59 51°14.51 2°49.868 12.2 250 9.8 101780 77
2005-05-13 07:52:04 51°14.506 2°49.863 10.6 251 9.8 101780 77
2005-05-13 07:52:08 51°14.503 2°49.86 9 251 9.8 101770 76
2005-05-13 07:52:14 51°14.499 2°49.855 8.5 248 9.8 101770 76
2005-05-13 07:52:19 51°14.496 2°49.852 10.9 243 9.8 101780 76
2005-05-13 07:52:24 51°14.493 2°49.848 10.6 242 9.8 101780 76
2005-05-13 07:52:29 51°14.49 2°49.845 12.6 245 9.8 101780 76
2005-05-13 07:52:34 51°14.487 2°49.84 9.6 248 9.8 101780 76
2005-05-13 07:52:39 51°14.484 2°49.837 8.1 256 9.8 101780 77
2005-05-13 07:52:44 51°14.481 2°49.833 10.7 249 9.8 101780 77
2005-05-13 07:52:48 51°14.478 2°49.83 11.3 253 9.9 101770 77
2005-05-13 07:52:54 51°14.474 2°49.826 9.4 253 9.9 101770 77
2005-05-13 07:52:59 51°14.472 2°49.822 9.4 250 9.9 101780 77
2005-05-13 07:53:03 51°14.469 2°49.82 10 248 9.9 101780 77
2005-05-13 07:53:09 51°14.466 2°49.816 8 254 9.9 101770 77
2005-05-13 07:53:14 51°14.462 2°49.811 10.7 251 9.9 101770 77
2005-05-13 07:53:19 51°14.459 2°49.808 7.9 246 9.9 101780 77
2005-05-13 07:53:24 51°14.456 2°49.804 8 258 9.9 101780 77
2005-05-13 07:53:29 51°14.454 2°49.801 8.9 250 9.9 101780 78
2005-05-13 07:53:34 51°14.45 2°49.796 10.3 247 9.9 101780 78
2005-05-13 07:53:39 51°14.448 2°49.793 11.5 245 9.9 101780 78
2005-05-13 07:53:44 51°14.445 2°49.789 10.7 251 9.9 101780 78
2005-05-13 07:53:49 51°14.442 2°49.785 10.2 244 9.9 101780 78
2005-05-13 07:53:54 51°14.439 2°49.781 10.3 244 9.9 101780 78
2005-05-13 07:53:59 51°14.436 2°49.778 9.2 260 10 101780 78
2005-05-13 07:54:03 51°14.434 2°49.775 9.8 253 10 101780 78
2005-05-13 07:54:09 51°14.431 2°49.77 9.1 252 9.9 101780 78
2005-05-13 07:54:14 51°14.428 2°49.766 9.9 254 9.9 101780 78
2005-05-13 07:54:19 51°14.425 2°49.763 11.3 252 9.9 101780 77
2005-05-13 07:54:24 51°14.422 2°49.759 9.2 246 9.9 101780 77
2005-05-13 07:54:29 51°14.42 2°49.756 9.1 254 9.9 101780 76
2005-05-13 07:54:34 51°14.417 2°49.752 10.3 256 9.9 101780 76
2005-05-13 07:54:39 51°14.414 2°49.748 9.3 252 9.9 101770 77
2005-05-13 07:54:44 51°14.411 2°49.744 10 249 9.9 101770 77
2005-05-13 07:54:49 51°14.409 2°49.74 7.6 255 9.9 101780 77
2005-05-13 07:54:54 51°14.406 2°49.737 10.6 247 9.9 101780 77
2005-05-13 07:54:59 51°14.403 2°49.733 9.3 251 9.9 101780 77
2005-05-13 07:55:04 51°14.4 2°49.73 9.1 253 9.9 101780 77
2005-05-13 07:55:08 51°14.397 2°49.727 9.5 254 9.9 101780 77
2005-05-13 07:55:14 51°14.394 2°49.723 10.5 246 9.9 101780 77
2005-05-13 07:55:19 51°14.391 2°49.719 10.2 250 10 101780 77
2005-05-13 07:55:24 51°14.388 2°49.715 12.1 247 10 101780 77
2005-05-13 07:55:28 51°14.385 2°49.712 12.3 246 10 101770 77
2005-05-13 07:55:34 51°14.381 2°49.707 11.2 245 10 101770 77
2005-05-13 07:55:39 51°14.378 2°49.703 11.4 247 10 101780 78
2005-05-13 07:55:43 51°14.375 2°49.7 11.7 247 10 101780 78
2005-05-13 07:55:48 51°14.372 2°49.696 10.9 248 9.9 101770 77
2005-05-13 07:55:54 51°14.368 2°49.692 9.1 251 9.9 101770 77
2005-05-13 07:55:59 51°14.364 2°49.688 10.5 242 9.9 101770 76
2005-05-13 07:56:04 51°14.36 2°49.684 10.9 232 9.9 101770 76
2005-05-13 07:56:08 51°14.357 2°49.68 9.2 243 9.9 101770 76
2005-05-13 07:56:14 51°14.353 2°49.676 10 238 9.9 101770 76
2005-05-13 07:56:19 51°14.35 2°49.671 10.4 244 9.9 101780 76
2005-05-13 07:56:24 51°14.345 2°49.667 11.9 246 9.9 101780 76
2005-05-13 07:56:28 51°14.342 2°49.664 9.1 242 10 101780 77
2005-05-13 07:56:35 51°14.337 2°49.658 9.3 237 10 101780 77
2005-05-13 07:56:39 51°14.334 2°49.654 10.4 235 10 101780 78
2005-05-13 07:56:44 51°14.33 2°49.65 11.2 239 10 101780 78
2005-05-13 07:56:48 51°14.327 2°49.646 11.3 238 10 101780 78
2005-05-13 07:56:54 51°14.322 2°49.64 11.9 239 10 101780 78
2005-05-13 07:56:59 51°14.318 2°49.636 11.3 247 10 101780 78
2005-05-13 07:57:04 51°14.314 2°49.631 10.4 246 10 101780 78
2005-05-13 07:57:08 51°14.31 2°49.627 10.9 249 10 101780 78
2005-05-13 07:57:14 51°14.305 2°49.622 11.8 241 10 101780 78
2005-05-13 07:57:19 51°14.301 2°49.617 12 244 10 101780 78
2005-05-13 07:57:24 51°14.296 2°49.612 10.7 242 10 101780 78
2005-05-13 07:57:28 51°14.293 2°49.608 11.2 248 10 101770 78
2005-05-13 07:57:34 51°14.287 2°49.602 9.6 247 10 101770 78
2005-05-13 07:57:39 51°14.283 2°49.599 12.6 240 9.9 101770 78
2005-05-13 07:57:44 51°14.279 2°49.594 12.2 238 9.9 101770 78
2005-05-13 07:57:49 51°14.274 2°49.589 12.4 240 10 101770 78
2005-05-13 07:57:54 51°14.269 2°49.584 10.5 236 10 101770 78
2005-05-13 07:57:59 51°14.265 2°49.579 10.7 240 10 101780 78
2005-05-13 07:58:04 51°14.26 2°49.574 10.1 239 10 101780 78
2005-05-13 07:58:08 51°14.256 2°49.571 9.6 239 9.9 101770 77
2005-05-13 07:58:14 51°14.251 2°49.565 10 239 9.9 101770 77
2005-05-13 07:58:19 51°14.247 2°49.56 10.5 243 10 101780 77
2005-05-13 07:58:24 51°14.242 2°49.555 11.3 238 10 101780 77
2005-05-13 07:58:29 51°14.237 2°49.55 10.1 237 10 101780 77
2005-05-13 07:58:34 51°14.233 2°49.545 10.2 247 10 101780 77
2005-05-13 07:58:39 51°14.229 2°49.54 10.7 239 10 101780 78
2005-05-13 07:58:44 51°14.223 2°49.534 10 236 10 101780 78
2005-05-13 07:58:48 51°14.22 2°49.53 12.4 232 9.9 101780 78
2005-05-13 07:58:54 51°14.215 2°49.524 8.2 246 9.9 101780 78
2005-05-13 07:58:59 51°14.211 2°49.519 9.5 240 9.9 101780 78
2005-05-13 07:59:04 51°14.207 2°49.514 9.5 232 9.9 101780 78
2005-05-13 07:59:08 51°14.203 2°49.509 10 230 9.9 101780 77
2005-05-13 07:59:14 51°14.197 2°49.503 10.2 243 9.9 101780 77
2005-05-13 07:59:19 51°14.193 2°49.498 10.4 237 10 101790 77
2005-05-13 07:59:24 51°14.188 2°49.492 10.1 235 10 101790 77
2005-05-13 07:59:29 51°14.184 2°49.488 9 239 10 101780 78
2005-05-13 07:59:34 51°14.18 2°49.482 10.5 238 10 101780 78
2005-05-13 07:59:39 51°14.176 2°49.477 8.8 238 10 101780 79
2005-05-13 07:59:44 51°14.171 2°49.471 11.4 234 10 101780 79
2005-05-13 07:59:49 51°14.167 2°49.467 10.1 229 10 101780 79
2005-05-13 07:59:54 51°14.163 2°49.461 8.7 226 10 101780 79
2005-05-13 07:59:59 51°14.159 2°49.457 10.7 238 10 101780 79
2005-05-13 08:00:04 51°14.155 2°49.451 11.5 228 10 101780 79
2005-05-13 08:00:09 51°14.151 2°49.446 10 228 10 101780 79
2005-05-13 08:00:14 51°14.147 2°49.441 10.1 237 10 101780 79
2005-05-13 08:00:19 51°14.143 2°49.435 8.2 231 10 101780 79
2005-05-13 08:00:24 51°14.138 2°49.429 9.9 235 10 101780 79
2005-05-13 08:00:29 51°14.134 2°49.424 10.9 234 10 101780 79
2005-05-13 08:00:34 51°14.131 2°49.418 9.3 231 10 101780 79
2005-05-13 08:00:39 51°14.127 2°49.412 10.6 233 10 101780 79
2005-05-13 08:00:44 51°14.123 2°49.407 10.6 230 10 101780 79
2005-05-13 08:00:48 51°14.12 2°49.402 11.1 232 10 101780 79
2005-05-13 08:00:54 51°14.115 2°49.395 11.6 224 10 101780 79
2005-05-13 08:00:59 51°14.111 2°49.39 10.6 228 10 101780 79
2005-05-13 08:01:04 51°14.107 2°49.383 12.4 226 10 101780 79
2005-05-13 08:01:08 51°14.104 2°49.379 10 219 10 101780 79
2005-05-13 08:01:14 51°14.1 2°49.372 10.8 217 10 101780 79
2005-05-13 08:01:19 51°14.096 2°49.366 11.7 227 10 101780 79
2005-05-13 08:01:24 51°14.092 2°49.36 10.9 218 10 101780 79
2005-05-13 08:01:28 51°14.089 2°49.355 11.4 225 10 101780 79
2005-05-13 08:01:34 51°14.084 2°49.348 10 230 10 101780 79
2005-05-13 08:01:39 51°14.081 2°49.343 11.4 221 10 101780 79
2005-05-13 08:01:44 51°14.077 2°49.337 11 225 10 101780 79
2005-05-13 08:01:49 51°14.074 2°49.331 11.1 224 10 101780 78
2005-05-13 08:01:54 51°14.069 2°49.325 10.5 218 10 101780 78
2005-05-13 08:01:59 51°14.066 2°49.319 11.3 221 10 101770 78
2005-05-13 08:02:04 51°14.062 2°49.312 10.7 218 10 101770 78
2005-05-13 08:02:08 51°14.059 2°49.308 9.8 225 10 101790 78
2005-05-13 08:02:14 51°14.055 2°49.301 11 222 10 101790 78
2005-05-13 08:02:19 51°14.051 2°49.294 9.7 225 10 101770 78
2005-05-13 08:02:24 51°14.048 2°49.289 10.8 225 10 101770 78
2005-05-13 08:02:28 51°14.045 2°49.284 10.4 225 10 101770 78
2005-05-13 08:02:34 51°14.041 2°49.276 10.9 225 10 101770 78
2005-05-13 08:02:39 51°14.038 2°49.271 10.7 225 10 101790 79
2005-05-13 08:02:44 51°14.035 2°49.265 10.3 211 10 101790 79
2005-05-13 08:02:48 51°14.032 2°49.26 8.4 217 10 101780 79
2005-05-13 08:02:54 51°14.028 2°49.253 8.9 222 10 101780 79
2005-05-13 08:02:59 51°14.025 2°49.246 9 217 10 101780 79
2005-05-13 08:03:04 51°14.021 2°49.24 8.9 213 10 101780 79
2005-05-13 08:03:09 51°14.018 2°49.234 9.5 215 10 101780 79
2005-05-13 08:03:14 51°14.015 2°49.227 9.4 211 10 101780 79
2005-05-13 08:03:19 51°14.012 2°49.222 9.6 213 10.1 101790 80
2005-05-13 08:03:24 51°14.008 2°49.214 9.9 216 10.1 101790 80
2005-05-13 08:03:29 51°14.005 2°49.208 9.3 212 10.1 101790 79
2005-05-13 08:03:34 51°14.003 2°49.203 10.2 210 10.1 101790 79
2005-05-13 08:03:39 51°13.999 2°49.197 11.2 206 10.1 101790 80
2005-05-13 08:03:44 51°13.996 2°49.19 10.4 213 10.1 101790 80
2005-05-13 08:03:49 51°13.993 2°49.184 9.3 210 10.1 101790 80
2005-05-13 08:03:54 51°13.99 2°49.177 9.1 210 10.1 101790 80
2005-05-13 08:03:59 51°13.987 2°49.171 9.7 212 10 101790 79
2005-05-13 08:04:04 51°13.984 2°49.164 9.5 220 10 101790 79
2005-05-13 08:04:09 51°13.981 2°49.158 11.6 217 10 101790 79
2005-05-13 08:04:14 51°13.978 2°49.152 8.2 206 10 101790 79
2005-05-13 08:04:18 51°13.975 2°49.147 7.8 203 10 101790 79
2005-05-13 08:04:24 51°13.972 2°49.139 8.1 208 10 101790 79
2005-05-13 08:04:28 51°13.969 2°49.134 8.6 202 10 101790 79
2005-05-13 08:04:34 51°13.966 2°49.125 8.7 202 10 101790 79
2005-05-13 08:04:40 51°13.963 2°49.118 9.1 202 10.1 101790 79
2005-05-13 08:04:44 51°13.961 2°49.112 7.4 202 10.1 101790 79
2005-05-13 08:04:49 51°13.958 2°49.107 6.7 196 10.1 101780 80
2005-05-13 08:04:54 51°13.955 2°49.1 8.7 203 10.1 101780 80
2005-05-13 08:04:59 51°13.953 2°49.094 8.1 207 10 101790 79
2005-05-13 08:05:04 51°13.95 2°49.087 8.2 202 10 101790 79
2005-05-13 08:05:09 51°13.947 2°49.081 9 204 10.1 101790 79
2005-05-13 08:05:14 51°13.944 2°49.074 9.2 203 10.1 101790 79
2005-05-13 08:05:19 51°13.941 2°49.068 8.6 204 10 101790 79
2005-05-13 08:05:24 51°13.938 2°49.061 10.2 214 10 101790 79
2005-05-13 08:05:28 51°13.936 2°49.056 11.9 204 10 101790 78
2005-05-13 08:05:34 51°13.932 2°49.048 9.6 211 10 101790 78
2005-05-13 08:05:39 51°13.929 2°49.042 10.4 210 10 101780 78
2005-05-13 08:05:44 51°13.926 2°49.035 9.7 213 10 101780 78
2005-05-13 08:05:49 51°13.923 2°49.03 11 213 10 101790 78
2005-05-13 08:05:54 51°13.92 2°49.023 11.6 214 10 101790 78
2005-05-13 08:05:59 51°13.917 2°49.017 10.5 212 10 101780 77
2005-05-13 08:06:04 51°13.913 2°49.01 9.7 213 10 101780 77
2005-05-13 08:06:08 51°13.911 2°49.005 9.6 214 10 101780 78
2005-05-13 08:06:14 51°13.907 2°48.998 11.1 219 10 101780 78
2005-05-13 08:06:19 51°13.904 2°48.992 9.9 220 10 101780 78
2005-05-13 08:06:24 51°13.901 2°48.986 11.4 218 10 101780 78
2005-05-13 08:06:29 51°13.898 2°48.98 10.7 221 10 101780 78
2005-05-13 08:06:34 51°13.894 2°48.974 9.1 224 10 101780 78
2005-05-13 08:06:39 51°13.89 2°48.968 10.5 227 10 101780 78
2005-05-13 08:06:44 51°13.887 2°48.962 10.8 220 10 101780 78
2005-05-13 08:06:48 51°13.884 2°48.958 12.1 223 10 101790 78
2005-05-13 08:06:55 51°13.88 2°48.95 10.7 218 10 101790 78
2005-05-13 08:06:59 51°13.878 2°48.945 10.4 219 10 101790 78
2005-05-13 08:07:03 51°13.875 2°48.94 10.2 219 10 101790 78
2005-05-13 08:07:09 51°13.871 2°48.934 10.1 220 10 101780 78
2005-05-13 08:07:14 51°13.868 2°48.927 11 222 10 101780 78
2005-05-13 08:07:19 51°13.865 2°48.922 10.4 223 10 101780 78
2005-05-13 08:07:24 51°13.862 2°48.915 9.1 221 10 101780 78
2005-05-13 08:07:28 51°13.859 2°48.911 9.9 218 10 101790 77
2005-05-13 08:07:34 51°13.855 2°48.903 8.4 217 10 101790 77
2005-05-13 08:07:39 51°13.852 2°48.897 10.1 216 10 101780 77
2005-05-13 08:07:44 51°13.85 2°48.891 9.5 210 10 101780 77
2005-05-13 08:07:49 51°13.847 2°48.886 8.6 213 10 101780 77
2005-05-13 08:07:54 51°13.844 2°48.88 7.2 206 10 101780 77
2005-05-13 08:07:59 51°13.841 2°48.874 7.8 210 10 101790 78
2005-05-13 08:08:04 51°13.838 2°48.867 7.9 203 10 101790 78
2005-05-13 08:08:09 51°13.836 2°48.861 7.5 200 10 101780 78
2005-05-13 08:08:14 51°13.833 2°48.854 9.4 201 10 101780 78
2005-05-13 08:08:18 51°13.831 2°48.85 7.3 205 10.1 101790 79
2005-05-13 08:08:24 51°13.828 2°48.842 5.8 201 10.1 101790 79
2005-05-13 08:08:28 51°13.826 2°48.837 5.6 195 10.1 101790 79
2005-05-13 08:08:34 51°13.823 2°48.829 4.9 192 10.1 101790 79
2005-05-13 08:08:39 51°13.821 2°48.823 5.7 186 10.1 101790 79
2005-05-13 08:08:43 51°13.819 2°48.818 7.6 177 10.1 101790 79
2005-05-13 08:08:49 51°13.816 2°48.81 7.7 181 10.1 101790 79
2005-05-13 08:08:54 51°13.814 2°48.803 7.5 178 10.1 101790 79
2005-05-13 08:08:59 51°13.812 2°48.797 9.8 169 10.2 101800 79
2005-05-13 08:09:04 51°13.81 2°48.79 10.5 166 10.2 101800 79
2005-05-13 08:09:08 51°13.808 2°48.785 9.9 169 10.1 101790 78
2005-05-13 08:09:14 51°13.807 2°48.777 9.3 162 10.1 101790 78
2005-05-13 08:09:19 51°13.805 2°48.771 9.8 157 10.1 101790 78
2005-05-13 08:09:23 51°13.804 2°48.766 9.7 159 10.1 101790 78
2005-05-13 08:09:28 51°13.803 2°48.759 11.1 154 10.1 101790 78
2005-05-13 08:09:34 51°13.8 2°48.752 11.8 152 10.1 101790 78
2005-05-13 08:09:39 51°13.799 2°48.745 11.5 158 10.1 101800 78
2005-05-13 08:09:44 51°13.798 2°48.738 10.3 155 10.1 101800 78
2005-05-13 08:09:49 51°13.797 2°48.732 10.5 151 10.1 101800 78
2005-05-13 08:09:54 51°13.795 2°48.726 12.1 148 10.1 101800 78
2005-05-13 08:09:59 51°13.794 2°48.719 9.7 155 10.1 101800 77
2005-05-13 08:10:03 51°13.794 2°48.714 11.1 146 10.1 101800 77
2005-05-13 08:10:09 51°13.792 2°48.707 10 145 10.1 101800 77
2005-05-13 08:10:14 51°13.791 2°48.7 11.1 139 10.1 101800 77
2005-05-13 08:10:19 51°13.791 2°48.695 10.4 137 10.1 101810 77
2005-05-13 08:10:24 51°13.79 2°48.688 9.9 137 10.1 101810 77
2005-05-13 08:10:29 51°13.789 2°48.683 11.1 142 10.1 101800 77
2005-05-13 08:10:34 51°13.788 2°48.676 10.8 137 10.1 101800 77
2005-05-13 08:10:39 51°13.787 2°48.671 11.3 138 10.1 101790 78
2005-05-13 08:10:44 51°13.787 2°48.664 10.5 135 10.1 101790 78
2005-05-13 08:10:49 51°13.786 2°48.659 9.9 135 10.1 101790 78
2005-05-13 08:10:55 51°13.785 2°48.651 11.1 139 10.1 101790 78
2005-05-13 08:10:59 51°13.785 2°48.647 11.2 136 10.1 101800 78
2005-05-13 08:11:04 51°13.784 2°48.641 9.7 129 10.1 101800 78
2005-05-13 08:11:08 51°13.783 2°48.636 9.4 133 10.1 101790 78
2005-05-13 08:11:14 51°13.783 2°48.629 9.2 123 10.1 101790 78
2005-05-13 08:11:19 51°13.782 2°48.623 8.5 119 10.1 101790 78
2005-05-13 08:11:24 51°13.782 2°48.618 9.6 121 10.1 101790 78
2005-05-13 08:11:29 51°13.781 2°48.612 10 121 10.1 101800 78
2005-05-13 08:11:35 51°13.781 2°48.605 10.8 121 10.1 101800 78
2005-05-13 08:11:39 51°13.78 2°48.6 10.7 115 10.2 101800 79
2005-05-13 08:11:44 51°13.78 2°48.594 10.4 122 10.2 101800 79
2005-05-13 08:11:49 51°13.779 2°48.588 11.3 117 10.2 101790 79
2005-05-13 08:11:54 51°13.779 2°48.582 10.9 120 10.2 101790 79
2005-05-13 08:11:59 51°13.779 2°48.575 11 118 10.2 101790 79
2005-05-13 08:12:04 51°13.779 2°48.57 10.8 117 10.2 101790 79
2005-05-13 08:12:09 51°13.779 2°48.564 11.1 119 10.2 101790 79
2005-05-13 08:12:14 51°13.779 2°48.558 8.9 118 10.2 101790 79
2005-05-13 08:12:19 51°13.779 2°48.553 9.3 112 10.2 101800 79
2005-05-13 08:12:24 51°13.779 2°48.546 10.5 109 10.2 101800 79
2005-05-13 08:12:29 51°13.779 2°48.54 10.1 99 10.1 101800 79
2005-05-13 08:12:34 51°13.779 2°48.535 11.4 97 10.1 101800 79
2005-05-13 08:12:39 51°13.779 2°48.53 10.7 105 10.1 101790 79
2005-05-13 08:12:44 51°13.779 2°48.524 10.7 102 10.1 101790 79
2005-05-13 08:12:49 51°13.78 2°48.519 11.5 103 10.2 101790 79
2005-05-13 08:12:54 51°13.781 2°48.513 11.7 104 10.2 101790 79
2005-05-13 08:12:59 51°13.781 2°48.508 11 106 10.2 101790 79
2005-05-13 08:13:04 51°13.782 2°48.501 10.9 104 10.2 101790 79
2005-05-13 08:13:08 51°13.783 2°48.496 11.6 113 10.2 101780 79
2005-05-13 08:13:14 51°13.785 2°48.488 10.8 116 10.2 101780 79
2005-05-13 08:13:19 51°13.787 2°48.481 9 107 10.2 101790 79
2005-05-13 08:13:24 51°13.789 2°48.473 11.3 101 10.2 101790 79
2005-05-13 08:13:28 51°13.791 2°48.467 10.2 102 10.2 101800 80
2005-05-13 08:13:34 51°13.794 2°48.458 11.1 98 10.2 101800 80
2005-05-13 08:13:39 51°13.796 2°48.451 10.5 97 10.2 101780 79
2005-05-13 08:13:44 51°13.799 2°48.442 10 98 10.2 101780 79
2005-05-13 08:13:48 51°13.801 2°48.435 10.8 101 10.2 101790 79
2005-05-13 08:13:54 51°13.804 2°48.426 10.3 95 10.2 101790 79
2005-05-13 08:13:59 51°13.808 2°48.417 11.5 103 10.2 101780 79
2005-05-13 08:14:04 51°13.811 2°48.407 11.6 98 10.2 101780 79
2005-05-13 08:14:08 51°13.814 2°48.4 12.6 104 10.2 101790 80
2005-05-13 08:14:14 51°13.818 2°48.39 12.1 92 10.2 101790 80
2005-05-13 08:14:19 51°13.821 2°48.382 11.4 95 10.2 101780 80
2005-05-13 08:14:24 51°13.825 2°48.373 10.8 94 10.2 101780 80
2005-05-13 08:14:29 51°13.828 2°48.365 12.5 97 10.2 101780 79
2005-05-13 08:14:34 51°13.832 2°48.355 12.3 94 10.2 101780 79
2005-05-13 08:14:39 51°13.835 2°48.347 12.1 91 10.2 101790 79
2005-05-13 08:14:44 51°13.839 2°48.338 12.1 96 10.2 101790 79
2005-05-13 08:14:49 51°13.843 2°48.329 12.1 90 10.2 101780 79
2005-05-13 08:14:54 51°13.847 2°48.32 12.7 95 10.2 101780 79
2005-05-13 08:14:59 51°13.851 2°48.313 13.4 90 10.1 101770 79
2005-05-13 08:15:04 51°13.854 2°48.305 13.6 87 10.1 101770 79
2005-05-13 08:15:09 51°13.858 2°48.296 13.3 89 10.2 101780 79
2005-05-13 08:15:14 51°13.863 2°48.286 12.7 93 10.2 101780 79
2005-05-13 08:15:19 51°13.866 2°48.278 12 88 10.1 101790 78
2005-05-13 08:15:24 51°13.87 2°48.271 10.8 99 10.1 101790 78
2005-05-13 08:15:29 51°13.874 2°48.261 11.9 89 10.1 101780 78
2005-05-13 08:15:34 51°13.878 2°48.254 14 83 10.1 101780 78
2005-05-13 08:15:39 51°13.882 2°48.246 12.4 84 10.1 101770 78
2005-05-13 08:15:44 51°13.887 2°48.238 13.8 86 10.1 101770 78
2005-05-13 08:15:49 51°13.891 2°48.231 13.5 86 10.1 101790 78
2005-05-13 08:15:54 51°13.895 2°48.222 11.7 85 10.1 101790 78
2005-05-13 08:15:59 51°13.899 2°48.215 12.3 88 10.1 101780 79
2005-05-13 08:16:04 51°13.904 2°48.207 14 88 10.1 101780 79
2005-05-13 08:16:09 51°13.908 2°48.199 13.3 85 10.1 101780 78
2005-05-13 08:16:14 51°13.913 2°48.192 11.8 85 10.1 101780 78
2005-05-13 08:16:19 51°13.917 2°48.185 10.8 82 10.1 101780 78
2005-05-13 08:16:24 51°13.921 2°48.178 9 79 10.1 101780 78
2005-05-13 08:16:28 51°13.923 2°48.172 11.9 85 10.1 101780 78
2005-05-13 08:16:34 51°13.927 2°48.165 12.6 84 10.1 101780 78
2005-05-13 08:16:39 51°13.93 2°48.159 11.7 82 10.1 101780 79
2005-05-13 08:16:44 51°13.932 2°48.152 12.9 90 10.1 101780 79
2005-05-13 08:16:48 51°13.934 2°48.147 12.7 86 10.1 101790 79
2005-05-13 08:16:54 51°13.936 2°48.141 13.1 91 10.1 101790 79
2005-05-13 08:16:59 51°13.938 2°48.134 12 88 10.1 101770 79
2005-05-13 08:17:04 51°13.94 2°48.128 11.9 91 10.1 101770 79
2005-05-13 08:17:09 51°13.941 2°48.123 11.8 92 10.1 101790 78
2005-05-13 08:17:14 51°13.943 2°48.117 10.5 90 10.1 101790 78
2005-05-13 08:17:19 51°13.944 2°48.112 10.7 89 10.1 101780 78
2005-05-13 08:17:24 51°13.945 2°48.106 10.3 93 10.1 101780 78
2005-05-13 08:17:29 51°13.946 2°48.102 11.4 87 10.1 101780 78
2005-05-13 08:17:34 51°13.947 2°48.096 12.1 95 10.1 101780 78
2005-05-13 08:17:39 51°13.948 2°48.091 11.8 96 10.1 101780 78
2005-05-13 08:17:44 51°13.948 2°48.086 12.7 98 10.1 101780 78
2005-05-13 08:17:48 51°13.949 2°48.081 12.8 89 10.1 101790 79
2005-05-13 08:17:54 51°13.95 2°48.075 12.8 92 10.1 101790 79
2005-05-13 08:17:59 51°13.95 2°48.07 13.5 87 10.2 101790 79
2005-05-13 08:18:04 51°13.951 2°48.065 13 91 10.2 101790 79
2005-05-13 08:18:08 51°13.951 2°48.062 13 89 10.1 101770 79
2005-05-13 08:18:14 51°13.952 2°48.056 11.8 94 10.1 101770 79
2005-05-13 08:18:19 51°13.952 2°48.052 12.8 91 10.1 101790 79
2005-05-13 08:18:24 51°13.952 2°48.046 13.2 95 10.1 101790 79
2005-05-13 08:18:29 51°13.952 2°48.042 12.7 99 10.1 101780 78
2005-05-13 08:18:34 51°13.952 2°48.037 11.9 90 10.1 101780 78
2005-05-13 08:18:39 51°13.952 2°48.032 13.1 85 10.1 101780 78
2005-05-13 08:18:44 51°13.952 2°48.026 13 92 10.1 101780 78
2005-05-13 08:18:49 51°13.952 2°48.022 12.6 92 10.1 101790 78
2005-05-13 08:18:54 51°13.951 2°48.017 12.4 91 10.1 101790 78
2005-05-13 08:18:59 51°13.951 2°48.013 12.1 90 10.1 101790 78
2005-05-13 08:19:04 51°13.95 2°48.008 12.6 87 10.1 101790 78
2005-05-13 08:19:08 51°13.95 2°48.004 12.3 84 10.1 101790 78
2005-05-13 08:19:14 51°13.949 2°47.999 12.8 87 10.1 101790 78
2005-05-13 08:19:19 51°13.948 2°47.994 10.8 96 10.1 101780 78
2005-05-13 08:19:24 51°13.947 2°47.989 10.7 96 10.1 101780 78
2005-05-13 08:19:28 51°13.947 2°47.986 11 89 10.1 101790 78
2005-05-13 08:19:34 51°13.946 2°47.979 11.2 94 10.1 101790 78
2005-05-13 08:19:39 51°13.945 2°47.975 10.7 94 10.1 101770 78
2005-05-13 08:19:44 51°13.944 2°47.97 12.2 93 10.1 101770 78
2005-05-13 08:19:48 51°13.944 2°47.966 12 93 10.1 101760 78
2005-05-13 08:19:54 51°13.943 2°47.961 11.4 101 10.1 101760 78
2005-05-13 08:19:59 51°13.941 2°47.957 11.5 93 10.1 101760 78
2005-05-13 08:20:04 51°13.941 2°47.953 11.8 99 10.1 101760 78
2005-05-13 08:20:09 51°13.94 2°47.947 11.8 102 10.1 101770 78
2005-05-13 08:20:14 51°13.938 2°47.943 10.9 103 10.1 101770 78
2005-05-13 08:20:19 51°13.938 2°47.939 11.6 103 10.1 101760 78
2005-05-13 08:20:24 51°13.936 2°47.934 9.8 109 10.1 101760 78
2005-05-13 08:20:28 51°13.935 2°47.931 10.3 109 10.1 101770 78
2005-05-13 08:20:34 51°13.934 2°47.925 12.2 98 10.1 101770 78
2005-05-13 08:20:39 51°13.933 2°47.921 10.6 103 10.1 101760 78
2005-05-13 08:20:44 51°13.931 2°47.916 12.1 107 10.1 101760 78
2005-05-13 08:20:48 51°13.93 2°47.912 12.2 102 10.2 101770 79
2005-05-13 08:20:54 51°13.929 2°47.906 12.4 105 10.2 101770 79
2005-05-13 08:20:59 51°13.928 2°47.902 12.9 102 10.2 101760 79
2005-05-13 08:21:04 51°13.927 2°47.898 12.4 109 10.2 101760 79
2005-05-13 08:21:09 51°13.926 2°47.893 12.7 110 10.2 101770 79
2005-05-13 08:21:14 51°13.925 2°47.887 12.4 106 10.2 101770 79
2005-05-13 08:21:19 51°13.924 2°47.883 12.3 104 10.2 101760 79
2005-05-13 08:21:24 51°13.923 2°47.878 11.5 110 10.2 101760 79
2005-05-13 08:21:28 51°13.923 2°47.874 11.1 106 10.1 101760 78
2005-05-13 08:21:34 51°13.922 2°47.867 10.9 106 10.1 101760 78
2005-05-13 08:21:39 51°13.921 2°47.863 11.5 101 10.1 101760 77
2005-05-13 08:21:44 51°13.921 2°47.857 12.7 95 10.1 101760 77
2005-05-13 08:21:48 51°13.921 2°47.853 13.1 93 10.1 101760 77
2005-05-13 08:21:54 51°13.921 2°47.847 11.5 96 10.1 101760 77
2005-05-13 08:21:59 51°13.921 2°47.841 11.6 92 10.1 101760 78
2005-05-13 08:22:04 51°13.922 2°47.837 8.9 76 10.1 101760 78
2005-05-13 08:22:08 51°13.922 2°47.833 10 81 10.2 101760 78
2005-05-13 08:22:14 51°13.923 2°47.827 10.6 81 10.2 101760 78
2005-05-13 08:22:19 51°13.924 2°47.823 12 81 10.1 101750 78
2005-05-13 08:22:24 51°13.925 2°47.818 10.6 81 10.1 101750 78
2005-05-13 08:22:28 51°13.925 2°47.814 10.9 75 10.1 101770 78
2005-05-13 08:22:34 51°13.927 2°47.81 10.9 71 10.1 101770 78
2005-05-13 08:22:39 51°13.928 2°47.806 11.5 67 10.1 101750 78
2005-05-13 08:22:44 51°13.93 2°47.802 11.2 67 10.1 101750 78
2005-05-13 08:22:48 51°13.931 2°47.799 11.6 64 10.1 101760 77
2005-05-13 08:22:54 51°13.933 2°47.795 11.9 62 10.1 101760 77
2005-05-13 08:22:59 51°13.935 2°47.792 10.9 57 10.1 101750 78
2005-05-13 08:23:04 51°13.936 2°47.789 10.1 44 10.1 101750 78
2005-05-13 08:23:08 51°13.938 2°47.788 10.7 47 10.1 101760 78
2005-05-13 08:23:14 51°13.94 2°47.785 11.3 44 10.1 101760 78
2005-05-13 08:23:19 51°13.942 2°47.784 11.3 37 10.1 101760 78
2005-05-13 08:23:24 51°13.944 2°47.782 11.9 39 10.1 101760 78
2005-05-13 08:23:28 51°13.945 2°47.782 13 36 10.2 101770 79
2005-05-13 08:23:34 51°13.947 2°47.781 12.6 27 10.2 101770 79
2005-05-13 08:23:39 51°13.948 2°47.78 13.4 25 10.2 101750 79
2005-05-13 08:23:44 51°13.949 2°47.779 12.3 26 10.2 101750 79
2005-05-13 08:23:49 51°13.95 2°47.778 12.7 28 10.2 101760 79
2005-05-13 08:23:54 51°13.951 2°47.777 12.4 22 10.2 101760 79
2005-05-13 08:23:59 51°13.951 2°47.776 12.1 22 10.2 101750 79
2005-05-13 08:24:04 51°13.952 2°47.775 12.9 21 10.2 101750 79
2005-05-13 08:24:08 51°13.952 2°47.773 12.3 21 10.1 101750 78
2005-05-13 08:24:14 51°13.952 2°47.772 11.7 24 10.1 101750 78
2005-05-13 08:24:19 51°13.952 2°47.771 12.5 22 10.1 101760 78
2005-05-13 08:24:24 51°13.952 2°47.769 10.9 25 10.1 101760 78
2005-05-13 08:24:29 51°13.952 2°47.766 11.4 21 10.1 101760 78
2005-05-13 08:24:34 51°13.952 2°47.764 10.9 16 10.1 101760 78
2005-05-13 08:24:39 51°13.952 2°47.763 11.1 11 10.1 101750 77
2005-05-13 08:24:44 51°13.952 2°47.761 9.1 15 10.1 101750 77
2005-05-13 08:24:48 51°13.952 2°47.759 8.2 14 10.1 101770 77
2005-05-13 08:24:54 51°13.951 2°47.757 12 18 10.1 101770 77
2005-05-13 08:24:59 51°13.951 2°47.755 11.7 18 10.1 101760 78
2005-05-13 08:25:04 51°13.95 2°47.753 10.4 11 10.1 101760 78
2005-05-13 08:25:08 51°13.95 2°47.752 10.6 15 10.2 101770 78
2005-05-13 08:25:14 51°13.95 2°47.749 11.6 16 10.2 101770 78
2005-05-13 08:25:19 51°13.949 2°47.747 11.9 19 10.2 101770 78
2005-05-13 08:25:24 51°13.948 2°47.745 10.9 18 10.2 101770 78
2005-05-13 08:25:29 51°13.948 2°47.742 11.3 6 10.1 101770 78
2005-05-13 08:25:34 51°13.947 2°47.741 11.3 8 10.1 101770 78
2005-05-13 08:25:39 51°13.946 2°47.738 11.8 5 10.2 101770 78
2005-05-13 08:25:44 51°13.945 2°47.735 10.9 12 10.2 101770 78
2005-05-13 08:25:48 51°13.944 2°47.733 10.4 10 10.2 101770 78
2005-05-13 08:25:54 51°13.943 2°47.73 10.6 14 10.2 101770 78
2005-05-13 08:25:59 51°13.942 2°47.727 10.4 14 10.2 101770 78
2005-05-13 08:26:04 51°13.941 2°47.724 10.1 6 10.2 101770 78
2005-05-13 08:26:08 51°13.94 2°47.722 9.3 6 10.2 101770 78
2005-05-13 08:26:14 51°13.938 2°47.718 11.2 5 10.2 101770 78
2005-05-13 08:26:19 51°13.937 2°47.715 10.7 5 10.2 101760 78
2005-05-13 08:26:23 51°13.936 2°47.713 10.5 354 10.2 101760 78
2005-05-13 08:26:29 51°13.934 2°47.709 10.1 5 10.2 101780 78
2005-05-13 08:26:34 51°13.933 2°47.705 10.9 1 10.2 101780 78
2005-05-13 08:26:39 51°13.931 2°47.703 10.4 360 10.2 101780 78
2005-05-13 08:26:43 51°13.929 2°47.7 9.5 355 10.2 101780 78
2005-05-13 08:26:48 51°13.928 2°47.697 9.3 358 10.2 101770 78
2005-05-13 08:26:54 51°13.926 2°47.692 8.5 356 10.2 101770 78
2005-05-13 08:26:59 51°13.924 2°47.69 10 357 10.2 101770 78
2005-05-13 08:27:04 51°13.923 2°47.686 9.6 347 10.2 101770 78
2005-05-13 08:27:08 51°13.921 2°47.683 9.8 346 10.2 101760 78
2005-05-13 08:27:14 51°13.919 2°47.679 10.7 360 10.2 101760 78
2005-05-13 08:27:19 51°13.918 2°47.676 9.9 356 10.2 101770 78
2005-05-13 08:27:24 51°13.916 2°47.672 10.8 346 10.2 101770 78
2005-05-13 08:27:29 51°13.914 2°47.669 11.7 346 10.3 101770 79
2005-05-13 08:27:34 51°13.912 2°47.665 11.6 344 10.3 101770 79
2005-05-13 08:27:39 51°13.911 2°47.661 10.7 329 10.3 101760 79
2005-05-13 08:27:43 51°13.908 2°47.658 11.2 340 10.3 101760 79
2005-05-13 08:27:49 51°13.906 2°47.654 10.7 338 10.3 101760 79
2005-05-13 08:27:54 51°13.905 2°47.65 10.6 336 10.3 101760 79
2005-05-13 08:27:59 51°13.903 2°47.647 10.5 336 10.3 101760 78
2005-05-13 08:28:04 51°13.901 2°47.643 11.7 328 10.3 101760 78
2005-05-13 08:28:08 51°13.899 2°47.64 10.4 330 10.3 101760 77
2005-05-13 08:28:14 51°13.897 2°47.636 12.3 325 10.3 101760 77
2005-05-13 08:28:19 51°13.896 2°47.633 12 325 10.3 101760 77
2005-05-13 08:28:24 51°13.893 2°47.629 12 324 10.3 101760 77
2005-05-13 08:28:29 51°13.892 2°47.626 11.4 320 10.2 101760 77
2005-05-13 08:28:34 51°13.89 2°47.622 11.3 322 10.2 101760 77
2005-05-13 08:28:39 51°13.888 2°47.619 10.8 314 10.2 101770 77
2005-05-13 08:28:44 51°13.886 2°47.617 11.2 41 10.2 101770 77
2005-05-13 08:28:48 51°13.884 2°47.616 11.9 321 10.3 101770 77
2005-05-13 08:28:54 51°13.881 2°47.615 12.8 318 10.3 101770 77
2005-05-13 08:28:59 51°13.878 2°47.615 13.1 323 10.2 101770 77
2005-05-13 08:29:03 51°13.876 2°47.615 13.2 329 10.2 101770 77
2005-05-13 08:29:09 51°13.873 2°47.616 12.2 325 10.3 101760 77
2005-05-13 08:29:14 51°13.872 2°47.617 12.4 332 10.3 101760 77
2005-05-13 08:29:19 51°13.87 2°47.618 12.7 328 10.3 101760 77
2005-05-13 08:29:24 51°13.867 2°47.62 11.7 335 10.3 101760 77
2005-05-13 08:29:28 51°13.867 2°47.621 12.4 333 10.3 101740 76
2005-05-13 08:29:34 51°13.864 2°47.623 11.6 345 10.3 101740 76
2005-05-13 08:29:39 51°13.863 2°47.624 12.8 337 10.2 101750 76
2005-05-13 08:29:44 51°13.862 2°47.626 11.4 345 10.2 101750 76
2005-05-13 08:29:49 51°13.861 2°47.628 13.2 353 10.3 101760 76
2005-05-13 08:29:54 51°13.86 2°47.629 11.8 354 10.3 101760 76
2005-05-13 08:29:59 51°13.86 2°47.63 10.3 355 10.3 101760 76
2005-05-13 08:30:04 51°13.859 2°47.633 13.4 358 10.3 101760 76
2005-05-13 08:30:09 51°13.859 2°47.634 13.6 360 10.3 101750 76
2005-05-13 08:30:14 51°13.86 2°47.637 12 14 10.3 101750 76
2005-05-13 08:30:19 51°13.861 2°47.639 12.8 12 10.3 101750 77
2005-05-13 08:30:24 51°13.863 2°47.64 12.7 21 10.3 101750 77
2005-05-13 08:30:28 51°13.864 2°47.64 13.7 24 10.3 101760 77
2005-05-13 08:30:34 51°13.866 2°47.641 13.5 35 10.3 101760 77
2005-05-13 08:30:39 51°13.868 2°47.64 11.6 38 10.3 101760 76
2005-05-13 08:30:44 51°13.869 2°47.639 13.2 50 10.3 101760 76
2005-05-13 08:30:49 51°13.872 2°47.637 12.3 50 10.3 101760 76
2005-05-13 08:30:54 51°13.873 2°47.635 12.6 54 10.3 101760 76
2005-05-13 08:30:59 51°13.875 2°47.633 12.5 54 10.3 101760 76
2005-05-13 08:31:04 51°13.876 2°47.631 11.5 55 10.3 101760 76
2005-05-13 08:31:09 51°13.878 2°47.628 12.7 55 10.3 101750 76
2005-05-13 08:31:14 51°13.879 2°47.624 11.8 61 10.3 101750 76
2005-05-13 08:31:19 51°13.88 2°47.622 11.4 66 10.3 101750 76
2005-05-13 08:31:24 51°13.881 2°47.618 11.8 64 10.3 101750 76
2005-05-13 08:31:28 51°13.882 2°47.615 12.1 64 10.3 101750 77
2005-05-13 08:31:35 51°13.882 2°47.61 10.9 62 10.3 101750 77
2005-05-13 08:31:39 51°13.883 2°47.606 11.1 64 10.3 101770 76
2005-05-13 08:31:44 51°13.884 2°47.602 11.1 63 10.3 101770 76
2005-05-13 08:31:49 51°13.884 2°47.598 12.1 63 10.2 101760 76
2005-05-13 08:31:54 51°13.885 2°47.595 11.8 61 10.2 101760 76
2005-05-13 08:31:59 51°13.886 2°47.592 12.3 58 10.2 101760 76
2005-05-13 08:32:04 51°13.887 2°47.588 13.2 55 10.2 101760 76
2005-05-13 08:32:08 51°13.888 2°47.585 11.9 52 10.2 101760 76
2005-05-13 08:32:14 51°13.89 2°47.582 11.9 44 10.2 101760 76
2005-05-13 08:32:19 51°13.892 2°47.58 13.8 45 10.2 101760 77
2005-05-13 08:32:24 51°13.895 2°47.578 13.4 37 10.2 101760 77
2005-05-13 08:32:28 51°13.897 2°47.578 13.5 37 10.2 101760 76
2005-05-13 08:32:34 51°13.9 2°47.577 13.6 30 10.2 101760 76
2005-05-13 08:32:39 51°13.903 2°47.577 13.7 31 10.2 101760 77
2005-05-13 08:32:44 51°13.905 2°47.577 12.9 33 10.2 101760 77
2005-05-13 08:32:48 51°13.908 2°47.577 14.1 29 10.2 101770 76
2005-05-13 08:32:54 51°13.912 2°47.579 12.8 25 10.2 101770 76
2005-05-13 08:32:59 51°13.916 2°47.58 12.8 26 10.2 101770 76
2005-05-13 08:33:04 51°13.92 2°47.582 13.5 24 10.2 101770 76
2005-05-13 08:33:09 51°13.924 2°47.585 12.7 27 10.5 101780 75
2005-05-13 08:33:14 51°13.929 2°47.589 13.3 20 10.5 101780 75
2005-05-13 08:33:19 51°13.933 2°47.592 12.8 20 10.2 101770 76
2005-05-13 08:33:23 51°13.936 2°47.596 14.3 21 10.2 101770 76
2005-05-13 08:33:29 51°13.942 2°47.602 14.3 22 10.2 101770 76
2005-05-13 08:33:34 51°13.947 2°47.607 13.7 20 10.2 101770 76
2005-05-13 08:33:39 51°13.951 2°47.612 13.8 21 10.2 101760 77
2005-05-13 08:33:44 51°13.955 2°47.618 13.4 16 10.2 101760 77
2005-05-13 08:33:49 51°13.96 2°47.624 13.8 17 10.2 101780 77
2005-05-13 08:33:54 51°13.965 2°47.63 14 17 10.2 101780 77
2005-05-13 08:33:59 51°13.969 2°47.635 15 18 10.2 101780 77
2005-05-13 08:34:04 51°13.974 2°47.643 13.9 18 10.2 101780 77
2005-05-13 08:34:09 51°13.978 2°47.648 14.2 21 10.2 101770 77
2005-05-13 08:34:14 51°13.982 2°47.655 13.3 15 10.2 101770 77
2005-05-13 08:34:19 51°13.986 2°47.661 13.9 13 10.2 101780 77
2005-05-13 08:34:23 51°13.989 2°47.665 14.2 19 10.2 101780 77
2005-05-13 08:34:28 51°13.992 2°47.67 14.3 15 10.2 101760 77
2005-05-13 08:34:34 51°13.997 2°47.679 13.8 13 10.2 101760 77
2005-05-13 08:34:39 51°14 2°47.684 13.9 14 10.2 101770 77
2005-05-13 08:34:44 51°14.003 2°47.691 13.6 10 10.2 101770 77
2005-05-13 08:34:48 51°14.005 2°47.695 13.3 6 10.3 101770 77
2005-05-13 08:34:54 51°14.009 2°47.702 14 5 10.3 101770 77
2005-05-13 08:34:59 51°14.011 2°47.708 13.7 9 10.2 101760 76
2005-05-13 08:35:04 51°14.014 2°47.713 15 5 10.2 101760 76
2005-05-13 08:35:09 51°14.016 2°47.72 14.5 6 10.3 101780 76
2005-05-13 08:35:14 51°14.019 2°47.726 12.9 14 10.3 101780 76
2005-05-13 08:35:19 51°14.022 2°47.73 13.8 10 10.3 101770 76
2005-05-13 08:35:24 51°14.024 2°47.736 13.7 10 10.3 101770 76
2005-05-13 08:35:28 51°14.026 2°47.74 14.9 13 10.2 101770 76
2005-05-13 08:35:35 51°14.03 2°47.745 13.5 11 10.2 101770 76
2005-05-13 08:35:39 51°14.032 2°47.75 15.3 16 10.3 101770 76
2005-05-13 08:35:44 51°14.036 2°47.754 12.7 17 10.3 101770 76
2005-05-13 08:35:49 51°14.038 2°47.758 14.6 15 10.3 101770 77
2005-05-13 08:35:54 51°14.041 2°47.762 13.3 17 10.3 101770 77
2005-05-13 08:35:59 51°14.044 2°47.765 14.2 15 10.3 101760 76
2005-05-13 08:36:04 51°14.047 2°47.769 13.7 15 10.3 101760 76
2005-05-13 08:36:09 51°14.05 2°47.773 14.3 17 10.3 101770 76
2005-05-13 08:36:14 51°14.053 2°47.777 13.1 15 10.3 101770 76
2005-05-13 08:36:19 51°14.055 2°47.781 12.3 16 10.3 101750 76
2005-05-13 08:36:24 51°14.058 2°47.787 14.8 8 10.3 101750 76
2005-05-13 08:36:29 51°14.06 2°47.791 14.4 3 10.3 101770 77
2005-05-13 08:36:34 51°14.061 2°47.797 14.5 358 10.3 101770 77
2005-05-13 08:36:39 51°14.062 2°47.803 13.4 354 10.3 101770 76
2005-05-13 08:36:44 51°14.062 2°47.81 14.7 347 10.3 101770 76
2005-05-13 08:36:49 51°14.063 2°47.815 13.9 346 10.3 101770 77
2005-05-13 08:36:53 51°14.062 2°47.822 13.8 343 10.3 101770 77
2005-05-13 08:36:59 51°14.061 2°47.829 13.1 344 10.3 101770 76
2005-05-13 08:37:04 51°14.06 2°47.838 13.4 343 10.3 101770 76
2005-05-13 08:37:09 51°14.06 2°47.845 13.2 345 10.3 101750 76
2005-05-13 08:37:14 51°14.059 2°47.852 11.7 347 10.3 101750 76
2005-05-13 08:37:19 51°14.058 2°47.859 13.6 354 10.3 101750 76
2005-05-13 08:37:24 51°14.059 2°47.867 13.9 355 10.3 101750 76
2005-05-13 08:37:29 51°14.058 2°47.874 13.4 356 10.3 101740 77
2005-05-13 08:37:34 51°14.058 2°47.882 12.9 349 10.3 101740 77
2005-05-13 08:37:39 51°14.058 2°47.888 14.3 351 10.3 101750 77
2005-05-13 08:37:44 51°14.057 2°47.896 14.6 346 10.3 101750 77
2005-05-13 08:37:48 51°14.058 2°47.901 14.3 349 10.4 101750 77
2005-05-13 08:37:54 51°14.058 2°47.91 11.3 356 10.4 101750 77
2005-05-13 08:37:59 51°14.057 2°47.916 11.8 350 10.4 101760 77
2005-05-13 08:38:04 51°14.057 2°47.924 12.7 355 10.4 101760 77
2005-05-13 08:38:09 51°14.056 2°47.931 12.5 348 10.4 101750 77
2005-05-13 08:38:14 51°14.056 2°47.937 14.4 347 10.4 101750 77
2005-05-13 08:38:19 51°14.056 2°47.944 13.4 347 10.4 101760 76
2005-05-13 08:38:24 51°14.056 2°47.951 11.5 353 10.4 101760 76
2005-05-13 08:38:28 51°14.055 2°47.957 12.6 348 10.4 101760 76
2005-05-13 08:38:34 51°14.055 2°47.965 11.9 349 10.4 101760 76
2005-05-13 08:38:39 51°14.055 2°47.971 12.7 352 10.4 101760 77
2005-05-13 08:38:44 51°14.055 2°47.979 12.6 340 10.4 101760 77
2005-05-13 08:38:49 51°14.054 2°47.985 12.9 346 10.4 101750 76
2005-05-13 08:38:54 51°14.054 2°47.992 12.3 351 10.4 101750 76
2005-05-13 08:38:59 51°14.054 2°47.999 13.1 342 10.4 101760 76
2005-05-13 08:39:04 51°14.054 2°48.006 14 353 10.4 101760 76
2005-05-13 08:39:08 51°14.054 2°48.011 14.6 347 10.4 101760 77
2005-05-13 08:39:14 51°14.054 2°48.018 14 353 10.4 101760 77
2005-05-13 08:39:19 51°14.053 2°48.025 12.6 351 10.4 101750 77
2005-05-13 08:39:24 51°14.052 2°48.032 13.2 353 10.4 101750 77
2005-05-13 08:39:29 51°14.052 2°48.038 13.5 351 10.4 101750 77
2005-05-13 08:39:34 51°14.052 2°48.044 12.2 354 10.4 101750 77
2005-05-13 08:39:39 51°14.052 2°48.05 13.2 359 10.4 101740 77
2005-05-13 08:39:44 51°14.052 2°48.057 13.1 347 10.4 101740 77
2005-05-13 08:39:48 51°14.052 2°48.062 12 356 10.4 101750 77
2005-05-13 08:39:54 51°14.052 2°48.069 13.4 352 10.4 101750 77
2005-05-13 08:39:59 51°14.052 2°48.075 13.9 352 10.4 101740 77
2005-05-13 08:40:04 51°14.052 2°48.081 13.9 355 10.4 101740 77
2005-05-13 08:40:09 51°14.052 2°48.087 13.1 354 10.4 101760 77
2005-05-13 08:40:14 51°14.051 2°48.093 12.2 351 10.4 101760 77
2005-05-13 08:40:19 51°14.051 2°48.099 13.1 349 10.4 101760 76
2005-05-13 08:40:24 51°14.052 2°48.105 12.5 351 10.4 101760 76
2005-05-13 08:40:29 51°14.052 2°48.111 13.2 356 10.4 101740 76
2005-05-13 08:40:34 51°14.051 2°48.118 13.9 349 10.4 101740 76
2005-05-13 08:40:39 51°14.052 2°48.124 13.4 344 10.4 101750 76
2005-05-13 08:40:44 51°14.052 2°48.13 14.1 348 10.4 101750 76
2005-05-13 08:40:49 51°14.051 2°48.136 14 352 10.4 101750 76
2005-05-13 08:40:54 51°14.051 2°48.143 13.1 347 10.4 101750 76
2005-05-13 08:40:59 51°14.051 2°48.148 12.5 351 10.5 101750 77
2005-05-13 08:41:04 51°14.051 2°48.155 12.7 354 10.5 101750 77
2005-05-13 08:41:08 51°14.052 2°48.16 12.2 345 10.4 101740 76